createdAt,value
2018-05-15T00:00:24.559Z,78.00
2018-05-15T00:02:55.369Z,78.20
2018-05-15T00:05:25.972Z,77.90
2018-05-15T00:07:56.277Z,79.10
2018-05-15T00:10:27.424Z,78.50
2018-05-15T00:12:58.293Z,78.50
2018-05-15T00:15:28.658Z,78.00
2018-05-15T00:17:58.940Z,77.90
2018-05-15T00:20:29.512Z,77.80
2018-05-15T00:23:00.068Z,77.20
2018-05-15T00:25:31.259Z,77.60
2018-05-15T00:28:01.511Z,77.60
2018-05-15T00:30:32.210Z,77.40
2018-05-15T00:33:03.214Z,77.80
2018-05-15T00:35:34.481Z,78.20
2018-05-15T00:38:04.802Z,78.30
2018-05-15T00:40:36.111Z,77.10
2018-05-15T00:43:06.369Z,77.10
2018-05-15T00:45:37.587Z,76.80
2018-05-15T00:48:08.325Z,76.70
2018-05-15T00:50:38.706Z,76.90
2018-05-15T00:53:09.151Z,76.90
2018-05-15T00:55:46.353Z,76.60
2018-05-15T00:58:16.841Z,76.90
2018-05-15T01:00:47.047Z,76.00
2018-05-15T01:03:17.636Z,76.40
2018-05-15T01:05:48.040Z,76.40
2018-05-15T01:08:18.516Z,76.10
2018-05-15T01:10:49.996Z,76.00
2018-05-15T01:13:20.349Z,76.00
2018-05-15T01:15:50.935Z,75.90
2018-05-15T01:18:22.015Z,75.70
2018-05-15T01:20:52.572Z,75.70
2018-05-15T01:23:23.415Z,75.50
2018-05-15T01:25:54.795Z,75.50
2018-05-15T01:28:26.106Z,76.20
2018-05-15T01:30:59.097Z,74.50
2018-05-15T01:33:29.681Z,74.90
2018-05-15T01:36:00.310Z,74.50
2018-05-15T01:38:30.553Z,74.30
2018-05-15T01:41:00.929Z,74.50
2018-05-15T01:43:32.280Z,75.10
2018-05-15T01:46:03.648Z,74.80
2018-05-15T01:48:34.978Z,74.40
2018-05-15T01:51:05.473Z,74.40
2018-05-15T01:53:35.714Z,74.40
2018-05-15T01:56:05.951Z,74.60
2018-05-15T01:58:36.738Z,75.00
2018-05-15T02:01:07.289Z,75.30
2018-05-15T02:03:37.604Z,74.70
2018-05-15T02:06:07.827Z,75.20
2018-05-15T02:08:38.069Z,74.70
2018-05-15T02:11:09.814Z,74.30
2018-05-15T02:13:40.265Z,74.30
2018-05-15T02:16:10.848Z,73.50
2018-05-15T02:18:41.479Z,73.50
2018-05-15T02:21:11.974Z,73.30
2018-05-15T02:23:43.104Z,73.50
2018-05-15T02:26:13.941Z,73.50
2018-05-15T02:28:44.357Z,73.30
2018-05-15T02:31:14.932Z,73.40
2018-05-15T02:33:45.497Z,73.10
2018-05-15T02:36:15.874Z,73.70
2018-05-15T02:38:47.195Z,73.60
2018-05-15T02:41:17.762Z,73.50
2018-05-15T02:43:49.008Z,73.90
2018-05-15T02:46:20.426Z,74.30
2018-05-15T02:48:50.678Z,74.40
2018-05-15T02:51:20.873Z,75.20
2018-05-15T02:53:53.794Z,74.90
2018-05-15T02:56:24.286Z,74.90
2018-05-15T02:58:54.578Z,75.10
2018-05-15T03:01:24.776Z,74.70
2018-05-15T03:03:55.069Z,74.00
2018-05-15T03:06:25.911Z,73.80
2018-05-15T03:08:57.067Z,74.60
2018-05-15T03:11:28.112Z,74.40
2018-05-15T03:13:59.315Z,73.60
2018-05-15T03:16:29.823Z,73.50
2018-05-15T03:19:02.746Z,73.00
2018-05-15T03:21:33.269Z,72.60
2018-05-15T03:24:03.732Z,73.20
2018-05-15T03:26:34.424Z,72.30
2018-05-15T03:29:04.770Z,72.50
2018-05-15T03:31:35.315Z,72.20
2018-05-15T03:34:06.553Z,72.60
2018-05-15T03:36:37.763Z,72.90
2018-05-15T03:39:08.524Z,72.80
2018-05-15T03:41:38.879Z,72.60
2018-05-15T03:44:09.146Z,72.20
2018-05-15T03:46:39.458Z,72.60
2018-05-15T03:49:09.790Z,72.50
2018-05-15T03:51:41.101Z,72.30
2018-05-15T03:54:12.480Z,71.40
2018-05-15T03:56:43.108Z,72.60
2018-05-15T03:59:13.557Z,72.20
2018-05-15T04:06:02.608Z,71.40
2018-05-15T04:08:34.454Z,71.80
2018-05-15T04:11:05.166Z,71.80
2018-05-15T04:13:35.466Z,70.90
2018-05-15T04:16:05.862Z,70.50
2018-05-15T04:18:36.924Z,70.20
2018-05-15T04:21:07.474Z,71.80
2018-05-15T04:23:37.927Z,71.10
2018-05-15T04:26:09.122Z,70.20
2018-05-15T04:28:40.515Z,70.60
2018-05-15T04:31:11.091Z,71.10
2018-05-15T04:33:41.399Z,69.20
2018-05-15T04:36:11.869Z,69.00
2018-05-15T04:38:42.713Z,69.20
2018-05-15T04:41:13.173Z,68.80
2018-05-15T04:43:43.632Z,68.10
2018-05-15T04:46:14.172Z,68.50
2018-05-15T04:48:44.738Z,68.30
2018-05-15T04:51:15.240Z,67.40
2018-05-15T04:53:46.146Z,67.00
2018-05-15T04:56:17.355Z,66.60
2018-05-15T04:58:47.629Z,66.50
2018-05-15T05:01:17.974Z,66.40
2018-05-15T05:03:51.559Z,65.90
2018-05-15T05:06:21.880Z,65.50
2018-05-15T05:08:55.198Z,60.00
2018-05-15T05:11:25.637Z,60.00
2018-05-15T05:13:56.573Z,57.30
2018-05-15T05:16:36.390Z,54.70
2018-05-15T05:19:07.987Z,50.70
2018-05-15T05:21:40.452Z,49.80
2018-05-15T05:24:11.084Z,49.70
2018-05-15T05:26:45.625Z,48.90
2018-05-15T05:29:17.101Z,48.00
2018-05-15T05:31:47.743Z,47.50
2018-05-15T05:34:22.028Z,46.60
2018-05-15T05:36:52.781Z,46.00
2018-05-15T05:39:25.669Z,45.50
2018-05-15T05:41:57.387Z,43.20
2018-05-15T05:44:28.113Z,43.10
2018-05-15T05:47:03.354Z,43.30
2018-05-15T05:49:34.933Z,42.40
2018-05-15T05:52:09.141Z,42.50
2018-05-15T05:54:42.191Z,41.70
2018-05-15T05:57:12.860Z,41.70
2018-05-15T05:59:49.736Z,42.10
2018-05-15T06:02:20.060Z,44.60
2018-05-15T06:04:50.974Z,46.60
2018-05-15T06:07:23.169Z,47.90
2018-05-15T06:10:02.668Z,45.90
2018-05-15T06:12:33.488Z,45.10
2018-05-15T06:15:04.793Z,47.70
2018-05-15T06:17:36.015Z,47.60
2018-05-15T06:20:08.361Z,51.60
2018-05-15T06:22:39.127Z,51.60
2018-05-15T06:25:10.256Z,55.40
2018-05-15T06:27:41.622Z,59.20
2018-05-15T06:30:12.406Z,59.20
2018-05-15T06:32:43.994Z,62.30
2018-05-15T06:35:17.377Z,62.60
2018-05-15T06:37:48.595Z,63.10
2018-05-15T06:40:19.616Z,63.00
2018-05-15T06:42:50.969Z,62.80
2018-05-15T06:45:21.792Z,63.50
2018-05-15T06:47:52.601Z,64.40
2018-05-15T06:50:24.697Z,65.20
2018-05-15T06:52:58.875Z,65.20
2018-05-15T06:55:30.537Z,67.20
2018-05-15T06:58:01.726Z,67.10
2018-05-15T07:00:33.524Z,68.50
2018-05-15T07:03:08.738Z,70.20
2018-05-15T07:05:40.080Z,71.40
2018-05-15T07:08:10.595Z,72.30
2018-05-15T07:10:40.972Z,72.50
2018-05-15T07:13:12.116Z,72.80
2018-05-15T07:15:43.057Z,73.00
2018-05-15T07:18:13.956Z,74.70
2018-05-15T07:20:53.197Z,74.70
2018-05-15T07:23:24.342Z,74.20
2018-05-15T07:25:55.277Z,74.00
2018-05-15T07:28:25.941Z,73.50
2018-05-15T07:30:56.797Z,74.00
2018-05-15T07:33:27.734Z,72.50
2018-05-15T07:35:58.525Z,70.40
2018-05-15T07:38:29.386Z,70.70
2018-05-15T07:41:00.246Z,68.00
2018-05-15T07:43:30.858Z,68.20
2018-05-15T07:46:01.785Z,67.20
2018-05-15T07:48:32.411Z,67.70
2018-05-15T07:51:03.075Z,65.80
2018-05-15T07:53:34.393Z,65.30
2018-05-15T07:56:06.228Z,65.40
2018-05-15T07:58:37.075Z,67.90
2018-05-15T08:01:09.289Z,67.80
2018-05-15T08:03:45.263Z,67.80
2018-05-15T08:06:19.031Z,66.80
2018-05-15T08:08:50.502Z,66.70
2018-05-15T08:11:21.070Z,67.60
2018-05-15T08:13:52.940Z,65.90
2018-05-15T08:16:28.139Z,65.90
2018-05-15T08:18:58.724Z,66.70
2018-05-15T08:21:29.776Z,66.90
2018-05-15T08:24:00.469Z,66.40
2018-05-15T08:26:31.782Z,66.30
2018-05-15T08:29:06.384Z,66.40
2018-05-15T08:31:37.493Z,66.30
2018-05-15T08:34:08.123Z,65.50
2018-05-15T08:36:40.872Z,65.70
2018-05-15T08:39:11.771Z,65.70
2018-05-15T08:41:42.420Z,65.50
2018-05-15T08:44:12.929Z,64.70
2018-05-15T08:46:46.063Z,65.00
2018-05-15T08:49:17.098Z,64.00
2018-05-15T08:51:47.545Z,64.30
2018-05-15T08:54:19.039Z,61.70
2018-05-15T08:56:49.647Z,61.70
2018-05-15T08:59:22.084Z,62.00
2018-05-15T09:01:54.983Z,62.00
2018-05-15T09:04:35.022Z,61.40
2018-05-15T09:07:10.519Z,60.10
2018-05-15T09:09:41.419Z,61.30
2018-05-15T09:12:12.332Z,60.10
2018-05-15T09:14:49.138Z,61.60
2018-05-15T09:17:19.842Z,61.70
2018-05-15T09:19:56.900Z,60.60
2018-05-15T09:22:28.747Z,61.60
2018-05-15T09:25:03.914Z,61.10
2018-05-15T09:27:35.230Z,60.90
2018-05-15T09:30:07.014Z,58.30
2018-05-15T09:32:37.888Z,59.30
2018-05-15T09:35:10.406Z,60.00
2018-05-15T09:37:42.611Z,58.70
2018-05-15T09:40:14.122Z,58.30
2018-05-15T09:42:47.025Z,57.00
2018-05-15T09:45:19.397Z,57.00
2018-05-15T09:47:51.058Z,57.40
2018-05-15T09:50:27.020Z,57.40
2018-05-15T09:53:00.374Z,56.70
2018-05-15T09:55:32.485Z,55.40
2018-05-15T09:58:03.196Z,53.50
2018-05-15T10:00:35.020Z,56.60
2018-05-15T10:03:06.555Z,56.60
2018-05-15T10:05:37.243Z,55.40
2018-05-15T10:08:10.878Z,55.80
2018-05-15T10:10:41.504Z,55.80
2018-05-15T10:13:17.800Z,55.80
2018-05-15T10:15:48.693Z,55.10
2018-05-15T10:18:26.303Z,53.30
2018-05-15T10:21:01.516Z,53.30
2018-05-15T10:23:33.425Z,53.40
2018-05-15T10:26:05.053Z,53.50
2018-05-15T10:28:37.701Z,54.00
2018-05-15T10:31:09.793Z,52.40
2018-05-15T10:33:43.135Z,52.80
2018-05-15T10:36:14.798Z,51.10
2018-05-15T10:38:50.980Z,51.10
2018-05-15T10:41:24.261Z,52.20
2018-05-15T10:43:56.033Z,52.10
2018-05-15T10:46:28.726Z,51.40
2018-05-15T10:48:59.969Z,50.70
2018-05-15T10:51:31.887Z,50.00
2018-05-15T10:54:05.294Z,49.90
2018-05-15T10:56:37.719Z,51.10
2018-05-15T10:59:17.834Z,52.00
2018-05-15T11:01:51.813Z,51.10
2018-05-15T11:04:24.927Z,47.90
2018-05-15T11:06:55.688Z,47.90
2018-05-15T11:09:27.380Z,47.70
2018-05-15T11:11:59.920Z,47.90
2018-05-15T11:14:31.434Z,48.40
2018-05-15T11:17:02.607Z,48.40
2018-05-15T11:23:51.340Z,48.20
2018-05-15T11:26:23.029Z,45.40
2018-05-15T11:28:53.790Z,45.00
2018-05-15T11:31:25.007Z,45.60
2018-05-15T11:33:57.160Z,45.00
2018-05-15T11:36:28.239Z,44.10
2018-05-15T11:39:00.071Z,43.80
2018-05-15T11:41:31.258Z,40.90
2018-05-15T11:44:02.659Z,39.30
2018-05-15T11:46:33.856Z,39.30
2018-05-15T11:49:05.388Z,38.30
2018-05-15T11:51:38.124Z,40.50
2018-05-15T11:54:08.231Z,40.30
2018-05-15T11:56:39.046Z,39.00
2018-05-15T11:59:10.216Z,38.70
2018-05-15T12:01:41.416Z,37.40
2018-05-15T12:04:12.568Z,37.30
2018-05-15T12:06:43.522Z,37.50
2018-05-15T12:09:14.399Z,37.10
2018-05-15T12:11:46.877Z,35.30
2018-05-15T12:14:24.415Z,36.00
2018-05-15T12:16:56.149Z,36.20
2018-05-15T12:19:27.415Z,36.40
2018-05-15T12:21:58.389Z,37.40
2018-05-15T12:24:29.334Z,38.60
2018-05-15T12:27:00.278Z,38.90
2018-05-15T12:29:30.978Z,38.40
2018-05-15T12:32:02.503Z,38.60
2018-05-15T12:34:36.014Z,39.80
2018-05-15T12:37:07.064Z,38.60
2018-05-15T12:39:37.711Z,37.80
2018-05-15T12:42:08.395Z,37.20
2018-05-15T12:44:38.928Z,39.60
2018-05-15T12:47:11.448Z,37.20
2018-05-15T12:49:45.883Z,37.20
2018-05-15T12:52:17.760Z,38.80
2018-05-15T12:54:48.312Z,38.90
2018-05-15T12:57:20.210Z,38.60
2018-05-15T12:59:51.894Z,38.60
2018-05-15T13:02:23.313Z,36.80
2018-05-15T13:04:54.290Z,37.90
2018-05-15T13:07:25.489Z,35.90
2018-05-15T13:09:56.943Z,36.90
2018-05-15T13:12:31.530Z,35.60
2018-05-15T13:15:02.949Z,35.60
2018-05-15T13:17:34.275Z,36.20
2018-05-15T13:20:05.943Z,36.40
2018-05-15T13:22:37.265Z,37.10
2018-05-15T13:25:21.164Z,36.30
2018-05-15T13:27:54.368Z,36.30
2018-05-15T13:30:27.105Z,36.70
2018-05-15T13:32:58.964Z,36.80
2018-05-15T13:35:29.966Z,37.80
2018-05-15T13:38:01.453Z,37.20
2018-05-15T13:40:37.949Z,38.00
2018-05-15T13:43:12.401Z,37.60
2018-05-15T13:46:06.153Z,38.10
2018-05-15T13:48:40.737Z,38.40
2018-05-15T13:51:16.856Z,38.80
2018-05-15T13:53:49.544Z,35.90
2018-05-15T13:56:24.006Z,36.40
2018-05-15T13:58:56.535Z,36.70
2018-05-15T14:01:29.309Z,36.20
2018-05-15T14:04:00.995Z,35.20
2018-05-15T14:06:34.466Z,35.40
2018-05-15T14:09:07.585Z,35.90
2018-05-15T14:11:38.467Z,35.70
2018-05-15T14:14:10.500Z,36.00
2018-05-15T14:16:41.980Z,36.20
2018-05-15T14:19:13.927Z,36.00
2018-05-15T14:21:46.075Z,37.00
2018-05-15T14:24:19.253Z,38.40
2018-05-15T14:26:52.312Z,38.50
2018-05-15T14:29:23.745Z,38.00
2018-05-15T14:31:55.893Z,37.90
2018-05-15T14:34:28.670Z,38.40
2018-05-15T14:37:00.434Z,38.40
2018-05-15T14:39:32.947Z,36.80
2018-05-15T14:44:13.241Z,37.50
2018-05-15T14:46:50.009Z,38.10
2018-05-15T14:49:21.864Z,38.40
2018-05-15T14:51:53.104Z,37.60
2018-05-15T14:54:24.038Z,37.30
2018-05-15T14:56:56.450Z,37.50
2018-05-15T14:59:28.613Z,36.60
2018-05-15T15:02:01.079Z,37.20
2018-05-15T15:04:35.171Z,36.40
2018-05-15T15:07:09.610Z,37.30
2018-05-15T15:09:44.361Z,37.20
2018-05-15T15:12:19.110Z,36.90
2018-05-15T15:14:51.054Z,37.80
2018-05-15T15:17:23.006Z,37.70
2018-05-15T15:19:55.548Z,37.80
2018-05-15T15:22:27.007Z,38.30
2018-05-15T15:24:58.338Z,37.80
2018-05-15T15:27:30.603Z,37.90
2018-05-15T15:30:03.016Z,36.80
2018-05-15T15:32:35.454Z,37.70
2018-05-15T15:35:09.709Z,38.00
2018-05-15T15:37:42.340Z,38.10
2018-05-15T15:40:15.015Z,38.00
2018-05-15T15:42:49.788Z,37.60
2018-05-15T15:45:24.340Z,37.10
2018-05-15T15:47:58.866Z,37.20
2018-05-15T15:50:33.761Z,37.10
2018-05-15T15:53:07.545Z,36.10
2018-05-15T15:55:38.135Z,37.40
2018-05-15T15:58:09.205Z,37.80
2018-05-15T16:00:41.128Z,38.20
2018-05-15T16:03:12.029Z,38.20
2018-05-15T16:05:42.542Z,37.90
2018-05-15T16:08:12.829Z,37.10
2018-05-15T16:10:43.350Z,36.00
2018-05-15T16:13:13.651Z,37.80
2018-05-15T16:15:44.583Z,37.60
2018-05-15T16:18:15.727Z,36.90
2018-05-15T16:20:46.867Z,37.70
2018-05-15T16:23:17.923Z,36.90
2018-05-15T16:25:48.638Z,37.40
2018-05-15T16:28:19.765Z,38.10
2018-05-15T16:30:50.939Z,38.10
2018-05-15T16:33:21.327Z,39.10
2018-05-15T16:35:51.523Z,38.50
2018-05-15T16:38:24.412Z,38.20
2018-05-15T16:40:55.015Z,36.90
2018-05-15T16:43:25.573Z,38.90
2018-05-15T16:45:56.003Z,38.20
2018-05-15T16:48:26.395Z,39.20
2018-05-15T16:50:56.656Z,39.80
2018-05-15T16:53:30.358Z,40.20
2018-05-15T16:56:00.828Z,41.30
2018-05-15T16:58:32.334Z,41.40
2018-05-15T17:01:08.625Z,41.50
2018-05-15T17:03:41.768Z,42.20
2018-05-15T17:06:12.359Z,40.80
2018-05-15T17:08:44.666Z,40.20
2018-05-15T17:11:15.228Z,40.90
2018-05-15T17:13:45.835Z,40.80
2018-05-15T17:16:16.386Z,41.00
2018-05-15T17:18:46.879Z,41.20
2018-05-15T17:21:18.302Z,41.30
2018-05-15T17:23:49.163Z,41.30
2018-05-15T17:26:20.213Z,40.80
2018-05-15T17:28:50.791Z,40.70
2018-05-15T17:31:21.674Z,40.80
2018-05-15T17:33:52.528Z,41.50
2018-05-15T17:36:22.845Z,41.90
2018-05-15T17:38:54.607Z,42.40
2018-05-15T17:41:25.720Z,43.30
2018-05-15T17:43:56.951Z,44.30
2018-05-15T17:46:27.627Z,44.30
2018-05-15T17:48:58.225Z,44.30
2018-05-15T17:51:28.831Z,44.40
2018-05-15T17:54:00.637Z,44.80
2018-05-15T17:56:32.836Z,45.20
2018-05-15T17:59:04.796Z,45.20
2018-05-15T18:01:35.160Z,45.40
2018-05-15T18:04:05.720Z,45.80
2018-05-15T18:06:36.154Z,45.50
2018-05-15T18:09:07.822Z,45.70
2018-05-15T18:11:39.192Z,46.00
2018-05-15T18:14:09.722Z,46.00
2018-05-15T18:16:40.412Z,46.60
2018-05-15T18:19:11.578Z,47.50
2018-05-15T18:21:42.977Z,47.90
2018-05-15T18:24:13.793Z,47.90
2018-05-15T18:26:45.363Z,48.40
2018-05-15T18:29:15.999Z,49.10
2018-05-15T18:31:46.833Z,49.80
2018-05-15T18:34:17.354Z,50.10
2018-05-15T18:36:49.326Z,50.40
2018-05-15T18:39:20.255Z,50.80
2018-05-15T18:41:51.904Z,51.20
2018-05-15T18:44:22.494Z,51.10
2018-05-15T18:46:56.570Z,51.50
2018-05-15T18:49:27.470Z,51.80
2018-05-15T18:51:58.386Z,52.30
2018-05-15T18:54:29.339Z,52.30
2018-05-15T18:57:03.086Z,52.30
2018-05-15T18:59:34.544Z,52.20
2018-05-15T19:02:07.241Z,52.30
2018-05-15T19:04:37.939Z,52.30
2018-05-15T19:07:10.717Z,52.70
2018-05-15T19:09:41.279Z,52.70
2018-05-15T19:12:11.625Z,53.20
2018-05-15T19:14:42.292Z,53.50
2018-05-15T19:17:12.686Z,53.60
2018-05-15T19:19:43.476Z,53.80
2018-05-15T19:22:15.321Z,54.10
2018-05-15T19:24:46.412Z,54.80
2018-05-15T19:27:16.633Z,54.70
2018-05-15T19:29:48.121Z,55.40
2018-05-15T19:32:19.865Z,56.40
2018-05-15T19:34:54.269Z,56.40
2018-05-15T19:37:24.729Z,56.80
2018-05-15T19:39:58.144Z,56.40
2018-05-15T19:42:29.030Z,56.40
2018-05-15T19:44:59.556Z,56.40
2018-05-15T19:47:31.451Z,56.90
2018-05-15T19:50:05.295Z,57.80
2018-05-15T19:52:36.242Z,57.80
2018-05-15T19:55:09.627Z,58.30
2018-05-15T19:57:40.960Z,58.30
2018-05-15T20:00:12.432Z,58.90
2018-05-15T20:02:44.231Z,58.60
2018-05-15T20:05:17.381Z,58.40
2018-05-15T20:07:50.433Z,59.40
2018-05-15T20:10:21.480Z,59.30
2018-05-15T20:12:52.118Z,59.50
2018-05-15T20:15:23.815Z,58.40
2018-05-15T20:17:54.706Z,59.30
2018-05-15T20:20:25.992Z,59.10
2018-05-15T20:22:56.704Z,58.90
2018-05-15T20:25:27.256Z,59.50
2018-05-15T20:27:59.249Z,59.40
2018-05-15T20:30:29.851Z,59.50
2018-05-15T20:33:00.315Z,59.50
2018-05-15T20:35:31.346Z,59.40
2018-05-15T20:38:02.820Z,59.80
2018-05-15T20:40:33.710Z,59.40
2018-05-15T20:43:04.018Z,59.90
2018-05-15T20:45:35.679Z,60.20
2018-05-15T20:48:06.990Z,59.40
2018-05-15T20:50:37.699Z,62.10
2018-05-15T20:53:08.497Z,60.60
2018-05-15T20:55:39.794Z,60.70
2018-05-15T20:58:10.545Z,60.60
2018-05-15T21:00:41.000Z,60.50
2018-05-15T21:03:12.286Z,60.50
2018-05-15T21:05:43.594Z,61.00
2018-05-15T21:08:13.988Z,60.00
2018-05-15T21:10:44.505Z,60.80
2018-05-15T21:13:14.690Z,60.60
2018-05-15T21:15:44.695Z,61.10
2018-05-15T21:18:14.970Z,62.00
2018-05-15T21:20:45.290Z,62.00
2018-05-15T21:23:15.681Z,62.00
2018-05-15T21:25:47.006Z,61.50
2018-05-15T21:28:17.846Z,61.40
2018-05-15T21:30:48.812Z,61.50
2018-05-15T21:33:19.856Z,61.80
2018-05-15T21:35:50.079Z,62.40
2018-05-15T21:38:20.289Z,65.00
2018-05-15T21:40:50.462Z,63.50
2018-05-15T21:43:20.920Z,61.10
2018-05-15T21:45:51.963Z,62.10
2018-05-15T21:48:22.877Z,62.20
2018-05-15T21:50:53.106Z,62.80
2018-05-15T21:53:23.288Z,62.20
2018-05-15T21:55:53.478Z,61.90
2018-05-15T21:58:23.843Z,62.20
2018-05-15T22:00:55.654Z,62.30
2018-05-15T22:03:25.922Z,61.90
2018-05-15T22:05:56.270Z,61.50
2018-05-15T22:08:26.443Z,61.80
2018-05-15T22:10:57.557Z,62.50
2018-05-15T22:13:38.483Z,62.60
2018-05-15T22:16:19.025Z,62.60
2018-05-15T22:19:00.670Z,63.00
2018-05-15T22:21:41.418Z,62.90
2018-05-15T22:24:12.212Z,62.30
2018-05-15T22:26:42.456Z,61.90
2018-05-15T22:29:13.653Z,62.40
2018-05-15T22:31:44.010Z,62.30
2018-05-15T22:34:15.177Z,62.40
2018-05-15T22:36:46.051Z,62.20
2018-05-15T22:39:16.123Z,62.10
2018-05-15T22:41:46.896Z,62.80
2018-05-15T22:44:17.283Z,62.70
2018-05-15T22:46:48.066Z,62.10
2018-05-15T22:49:18.325Z,61.90
2018-05-15T22:51:49.194Z,61.70
2018-05-15T22:54:19.554Z,61.40
2018-05-15T22:56:49.689Z,61.60
2018-05-15T22:59:20.703Z,61.70
2018-05-15T23:01:50.740Z,61.50
2018-05-15T23:04:20.970Z,61.20
2018-05-15T23:06:51.493Z,61.50
2018-05-15T23:09:21.537Z,61.20
2018-05-15T23:11:51.576Z,61.10
2018-05-15T23:14:22.947Z,60.60
2018-05-15T23:16:53.235Z,60.60
2018-05-15T23:19:23.420Z,60.30
2018-05-15T23:21:54.072Z,60.20
2018-05-15T23:24:24.462Z,60.40
2018-05-15T23:26:54.605Z,61.00
2018-05-15T23:29:25.268Z,60.70
2018-05-15T23:31:56.163Z,61.80
2018-05-15T23:34:26.437Z,61.70
2018-05-15T23:36:56.880Z,62.20
2018-05-15T23:39:27.183Z,62.20
2018-05-15T23:41:58.919Z,62.00
2018-05-15T23:44:29.250Z,61.70
2018-05-15T23:46:59.601Z,61.80
2018-05-15T23:49:31.022Z,61.40
2018-05-15T23:52:01.404Z,61.40
2018-05-15T23:54:31.760Z,61.30
2018-05-15T23:57:02.267Z,61.80
2018-05-15T23:59:32.484Z,61.90
